Kidderminster, United Kingdom
Current Conditions -  °F | °C
As of 5:50 PM on Friday 24 Oct 2014 (Local Time) from EGBB Reporting Station
Broken Clouds Broken Clouds  
Wind Chill: 54°   Ceiling: 2300
Heat Index: 54°   Visibility: 6mi
Dew Point: 50°   Wind: 8mph
Humidity: 88%   Direction: 290°WNW
Pressure: 29.88"   Gusts: NA
Location:  52.39°N, 2.25°W
Report Text: EGBB 241650Z 29007KT 9999 FEW017 BKN023 12/10 Q1012
Loading
Personal Weather Stations






























Interactive Weather Map
Tropical Storm Tracking
New forecast layout! Learn more

10-Day Weather Forecast

Advertisements
Track Severe Weather on mobile